Time;durP1;ratioP1;P1;durP2;ratioP2;P2;SDS_P1;SDS_P2;PMS_P1;PMS_P2;Temp;Humidity;BMP_temperature;BMP_pressure;BME280_temperature;BME280_humidity;BME280_pressure;Samples;Min_cycle;Max_cycle;Signal;HPM_P1;HPM_P2
2023/11/11 00:00:07;;;;;;;11.80;9.80;;;21.90;71.30;;;;;;5019848;28;20441;-65
2023/11/11 00:02:34;;;;;;;10.37;9.23;;;21.90;71.40;;;;;;5022676;28;20491;-65
2023/11/11 00:05:01;;;;;;;10.87;9.87;;;21.90;71.40;;;;;;5019943;28;20449;-65
2023/11/11 00:07:28;;;;;;;10.53;9.53;;;21.90;71.40;;;;;;5021161;28;21147;-64
2023/11/11 00:09:55;;;;;;;9.30;8.40;;;21.90;71.40;;;;;;5023042;28;20591;-65
2023/11/11 00:12:23;;;;;;;12.00;9.57;;;21.90;71.40;;;;;;5021235;28;20500;-65
2023/11/11 00:14:51;;;;;;;9.47;8.57;;;21.90;71.40;;;;;;5019623;28;20504;-65
2023/11/11 00:17:18;;;;;;;11.53;10.40;;;21.90;71.30;;;;;;5020031;28;20505;-65
2023/11/11 00:19:45;;;;;;;9.37;8.57;;;21.90;71.30;;;;;;5023125;28;20494;-65
2023/11/11 00:22:12;;;;;;;10.80;9.70;;;21.90;71.30;;;;;;5022480;28;20468;-64
2023/11/11 00:24:39;;;;;;;10.07;8.73;;;21.90;71.30;;;;;;5019447;28;20508;-65
2023/11/11 00:27:06;;;;;;;9.23;8.43;;;21.90;71.30;;;;;;5019336;28;20564;-65
2023/11/11 00:29:34;;;;;;;9.90;8.90;;;21.90;71.30;;;;;;5016645;28;20482;-65
2023/11/11 00:32:02;;;;;;;8.53;7.73;;;21.90;71.30;;;;;;5014791;28;20482;-65
2023/11/11 00:34:29;;;;;;;10.53;9.63;;;21.90;71.40;;;;;;5021816;28;20822;-65
2023/11/11 00:36:56;;;;;;;10.07;9.17;;;21.90;71.40;;;;;;5022823;28;20519;-65
2023/11/11 00:39:23;;;;;;;9.50;8.60;;;21.90;71.40;;;;;;5016103;28;20457;-66
2023/11/11 00:41:50;;;;;;;7.50;7.00;;;21.90;71.30;;;;;;5009554;28;20524;-65
2023/11/11 00:44:19;;;;;;;8.83;8.13;;;21.80;71.30;;;;;;5011483;28;20501;-65
2023/11/11 00:46:47;;;;;;;9.23;7.47;;;21.90;71.40;;;;;;5019293;28;20547;-66
2023/11/11 00:49:14;;;;;;;8.47;7.80;;;21.90;71.30;;;;;;5019629;28;20473;-65
2023/11/11 00:51:41;;;;;;;8.33;7.33;;;21.80;71.20;;;;;;5022736;28;20465;-65
2023/11/11 00:54:09;;;;;;;8.53;8.00;;;21.90;71.30;;;;;;5026290;28;20889;-65
2023/11/11 00:56:37;;;;;;;9.00;8.30;;;21.80;71.20;;;;;;5010436;28;20472;-65
2023/11/11 00:59:05;;;;;;;7.77;7.20;;;21.80;71.30;;;;;;5018682;28;20863;-65
2023/11/11 01:01:33;;;;;;;8.33;7.63;;;21.80;71.30;;;;;;5025368;28;20442;-65
2023/11/11 01:04:03;;;;;;;8.20;7.50;;;21.80;71.30;;;;;;5026157;28;20817;-65
2023/11/11 01:06:30;;;;;;;8.80;8.10;;;21.80;71.30;;;;;;5023852;28;20477;-66
2023/11/11 01:08:57;;;;;;;8.13;7.50;;;21.80;71.30;;;;;;5025974;28;20449;-65
2023/11/11 01:11:24;;;;;;;6.73;6.23;;;21.80;71.30;;;;;;5024276;28;20445;-65
2023/11/11 01:13:51;;;;;;;7.00;6.50;;;21.80;71.30;;;;;;5022634;28;20462;-65
2023/11/11 01:16:18;;;;;;;7.70;7.00;;;21.80;71.30;;;;;;5022103;28;20449;-65
2023/11/11 01:18:45;;;;;;;7.43;6.90;;;21.80;71.30;;;;;;5025774;28;20437;-65
2023/11/11 01:21:14;;;;;;;7.80;7.20;;;21.80;71.30;;;;;;5025878;28;20449;-65
2023/11/11 01:23:42;;;;;;;6.43;6.03;;;21.80;71.30;;;;;;5014555;28;21047;-65
2023/11/11 01:26:09;;;;;;;7.50;6.80;;;21.80;71.30;;;;;;5022114;28;20482;-64
2023/11/11 01:28:36;;;;;;;6.57;6.13;;;21.80;71.30;;;;;;5017448;28;20990;-65
2023/11/11 01:31:04;;;;;;;6.40;6.00;;;21.80;71.20;;;;;;5022281;28;20449;-64
2023/11/11 01:33:31;;;;;;;6.73;6.13;;;21.80;71.20;;;;;;5024358;28;20872;-65
2023/11/11 01:36:00;;;;;;;7.13;6.70;;;21.80;71.20;;;;;;5025456;28;20445;-65
2023/11/11 01:38:29;;;;;;;6.97;6.57;;;21.80;71.20;;;;;;5023517;28;20449;-65
2023/11/11 01:40:56;;;;;;;6.90;6.30;;;21.80;71.20;;;;;;5012055;28;20496;-65
2023/11/11 01:43:23;;;;;;;6.00;5.60;;;21.80;71.20;;;;;;5020939;28;21004;-65
2023/11/11 01:45:52;;;;;;;6.10;5.80;;;21.80;71.20;;;;;;5025251;28;21116;-67
2023/11/11 01:48:19;;;;;;;6.73;6.33;;;21.80;71.10;;;;;;5024493;28;20495;-65
2023/11/11 01:50:46;;;;;;;8.77;6.40;;;21.80;71.20;;;;;;5019837;28;20477;-65
2023/11/11 01:53:16;;;;;;;6.30;5.90;;;21.80;71.10;;;;;;5018224;28;20501;-65
2023/11/11 01:55:44;;;;;;;5.90;5.50;;;21.80;71.10;;;;;;5014064;28;20996;-65
2023/11/11 01:58:12;;;;;;;6.33;5.93;;;21.80;71.10;;;;;;5021769;28;20450;-65
2023/11/11 02:00:39;;;;;;;6.43;5.93;;;21.80;71.10;;;;;;5024826;28;20465;-65
2023/11/11 02:03:08;;;;;;;5.90;5.57;;;21.80;71.00;;;;;;5012093;28;20857;-65
2023/11/11 02:05:35;;;;;;;5.80;5.40;;;21.80;71.10;;;;;;5023223;28;20446;-65
2023/11/11 02:08:04;;;;;;;6.03;5.50;;;21.80;71.00;;;;;;5024778;28;21004;-65
2023/11/11 02:10:32;;;;;;;6.07;5.67;;;21.80;71.00;;;;;;5022390;28;20495;-65
2023/11/11 02:13:01;;;;;;;5.83;5.63;;;21.80;71.00;;;;;;5021397;28;21008;-65
2023/11/11 02:15:28;;;;;;;5.30;5.00;;;21.70;70.90;;;;;;5017799;28;21016;-65
2023/11/11 02:17:55;;;;;;;5.60;5.20;;;21.80;71.00;;;;;;5024666;28;20437;-67
2023/11/11 02:20:24;;;;;;;5.87;5.47;;;21.80;71.10;;;;;;5023521;28;20823;-66
2023/11/11 02:22:50;;;;;;;8.40;5.70;;;21.80;71.10;;;;;;5021310;28;20466;-66
2023/11/11 02:25:20;;;;;;;5.40;5.10;;;21.80;71.10;;;;;;5021447;28;20454;-66
2023/11/11 02:27:47;;;;;;;7.23;5.10;;;21.80;71.00;;;;;;5021894;28;20930;-66
2023/11/11 02:30:14;;;;;;;5.57;5.23;;;21.80;71.00;;;;;;5024513;28;20817;-66
2023/11/11 02:32:42;;;;;;;4.93;4.73;;;21.80;71.00;;;;;;5012983;28;20494;-66
2023/11/11 02:35:09;;;;;;;5.87;5.37;;;21.80;71.00;;;;;;5021123;28;20468;-66
2023/11/11 02:37:36;;;;;;;6.23;5.77;;;21.80;71.00;;;;;;5023546;28;20487;-65
2023/11/11 02:40:03;;;;;;;5.27;5.07;;;21.80;71.00;;;;;;5024165;28;20453;-66
2023/11/11 02:42:31;;;;;;;5.30;5.10;;;21.80;71.00;;;;;;5022306;28;20515;-67
2023/11/11 02:44:58;;;;;;;5.87;5.47;;;21.70;70.90;;;;;;5020769;28;20470;-66
2023/11/11 02:47:25;;;;;;;5.03;4.83;;;21.70;70.90;;;;;;5021897;28;20506;-66
2023/11/11 02:49:52;;;;;;;5.07;4.77;;;21.70;70.90;;;;;;5020330;28;20469;-66
2023/11/11 02:52:19;;;;;;;4.90;4.70;;;21.70;70.90;;;;;;5020996;28;20474;-66
2023/11/11 02:54:46;;;;;;;5.00;4.80;;;21.70;70.90;;;;;;5018612;28;20507;-66
2023/11/11 02:57:13;;;;;;;4.80;4.60;;;21.80;71.00;;;;;;5020969;28;20453;-66
2023/11/11 02:59:41;;;;;;;4.60;4.40;;;21.70;70.90;;;;;;5023884;28;20461;-66
2023/11/11 03:02:11;;;;;;;5.20;4.70;;;21.70;70.90;;;;;;5023688;28;20446;-65
2023/11/11 03:04:39;;;;;;;4.87;4.67;;;21.70;70.90;;;;;;5017647;28;20450;-65
2023/11/11 03:07:06;;;;;;;5.17;4.83;;;21.70;70.80;;;;;;5020387;28;20480;-66
2023/11/11 03:09:33;;;;;;;5.17;4.83;;;21.70;70.80;;;;;;5022750;28;20481;-66
2023/11/11 03:12:01;;;;;;;5.30;4.97;;;21.70;70.80;;;;;;5023712;28;20449;-66
2023/11/11 03:14:28;;;;;;;4.83;4.73;;;21.70;70.80;;;;;;5019047;28;20452;-66
2023/11/11 03:16:56;;;;;;;5.40;5.13;;;21.70;70.80;;;;;;5020436;28;20521;-66
2023/11/11 03:19:24;;;;;;;4.37;4.27;;;21.70;70.80;;;;;;5021511;28;20441;-66
2023/11/11 03:21:52;;;;;;;5.47;5.20;;;21.70;70.80;;;;;;5023708;28;20473;-66
2023/11/11 03:24:19;;;;;;;5.00;4.80;;;21.70;70.80;;;;;;5023183;28;20457;-66
2023/11/11 03:26:46;;;;;;;4.47;4.27;;;21.70;70.80;;;;;;5015656;28;20907;-66
2023/11/11 03:29:12;;;;;;;4.80;4.50;;;21.70;70.70;;;;;;5020448;28;20496;-66
2023/11/11 03:31:39;;;;;;;4.83;4.63;;;21.70;70.70;;;;;;5023706;28;20477;-65
2023/11/11 03:34:08;;;;;;;4.20;4.00;;;21.70;70.70;;;;;;5023923;28;21090;-66
2023/11/11 03:36:34;;;;;;;4.43;4.23;;;21.70;70.70;;;;;;5020839;28;20480;-66
2023/11/11 03:39:02;;;;;;;4.80;4.50;;;21.70;70.70;;;;;;5020572;28;20481;-66
2023/11/11 03:41:29;;;;;;;5.23;5.03;;;21.70;70.70;;;;;;5020581;28;20477;-66
2023/11/11 03:43:56;;;;;;;4.80;4.60;;;21.70;70.70;;;;;;5016961;28;20492;-66
2023/11/11 03:46:23;;;;;;;4.70;4.50;;;21.70;70.70;;;;;;5022500;28;20473;-66
2023/11/11 03:48:50;;;;;;;4.80;4.60;;;21.70;70.70;;;;;;5022930;28;20979;-66
2023/11/11 03:51:18;;;;;;;5.50;5.10;;;21.70;70.70;;;;;;5023276;28;20532;-66
2023/11/11 03:53:45;;;;;;;5.10;4.83;;;21.70;70.70;;;;;;5012112;28;20494;-66
2023/11/11 03:56:12;;;;;;;4.80;4.60;;;21.70;70.70;;;;;;5019864;28;20473;-65
2023/11/11 03:58:39;;;;;;;4.27;4.17;;;21.70;70.80;;;;;;5015887;28;20443;-66
2023/11/11 04:01:09;;;;;;;4.93;4.73;;;21.70;70.80;;;;;;5019710;28;20474;-65
2023/11/11 04:03:36;;;;;;;5.23;5.03;;;21.70;70.80;;;;;;5021870;28;20470;-66
2023/11/11 04:06:03;;;;;;;5.90;5.60;;;21.70;70.80;;;;;;5023005;28;20891;-66
2023/11/11 04:08:34;;;;;;;4.57;4.43;;;21.70;70.90;;;;;;5015652;28;20573;-65
2023/11/11 04:11:01;;;;;;;4.67;4.57;;;21.70;70.80;;;;;;5020040;28;20468;-66
2023/11/11 04:13:29;;;;;;;5.27;4.97;;;21.70;70.80;;;;;;5021073;28;20504;-66
2023/11/11 04:15:56;;;;;;;5.47;5.17;;;21.70;70.90;;;;;;5023071;28;20456;-66
2023/11/11 04:18:23;;;;;;;5.00;4.70;;;21.70;70.90;;;;;;5021990;28;20921;-66
2023/11/11 04:20:50;;;;;;;5.20;4.90;;;21.70;70.80;;;;;;5012176;28;20442;-67
2023/11/11 04:23:19;;;;;;;5.27;5.00;;;21.70;70.90;;;;;;5019493;28;20495;-66
2023/11/11 04:25:47;;;;;;;5.07;4.87;;;21.70;70.90;;;;;;5019548;28;20454;-66
2023/11/11 04:28:15;;;;;;;4.70;4.50;;;21.70;70.90;;;;;;5022168;28;20481;-66
2023/11/11 04:30:42;;;;;;;4.87;4.47;;;21.70;70.90;;;;;;5023357;28;20473;-67
2023/11/11 04:33:09;;;;;;;5.10;4.70;;;21.70;70.90;;;;;;5014412;28;20477;-66
2023/11/11 04:35:36;;;;;;;5.50;5.10;;;21.70;71.10;;;;;;5024114;28;20473;-67
2023/11/11 04:38:07;;;;;;;5.47;5.27;;;21.70;70.90;;;;;;5026737;28;20499;-65
2023/11/11 04:40:35;;;;;;;5.10;4.70;;;21.70;70.90;;;;;;5024698;28;20448;-65
2023/11/11 04:43:03;;;;;;;5.03;4.73;;;21.70;70.90;;;;;;5022401;28;20498;-65
2023/11/11 04:45:30;;;;;;;4.80;4.60;;;21.70;70.80;;;;;;5018328;28;20451;-67
2023/11/11 04:47:57;;;;;;;4.97;4.77;;;21.70;70.80;;;;;;5026587;28;21003;-66
2023/11/11 04:50:24;;;;;;;4.97;4.57;;;21.70;70.80;;;;;;5025875;28;20877;-66
2023/11/11 04:52:53;;;;;;;4.80;4.60;;;21.70;70.70;;;;;;5022819;28;20866;-66
2023/11/11 04:55:20;;;;;;;5.37;5.07;;;21.70;70.70;;;;;;5015701;28;20449;-66
2023/11/11 04:57:46;;;;;;;4.53;4.37;;;21.70;70.60;;;;;;5023059;28;20466;-66
2023/11/11 05:00:17;;;;;;;6.27;5.77;;;21.70;70.60;;;;;;5022859;28;20477;-66
2023/11/11 05:02:44;;;;;;;4.50;4.30;;;21.60;70.50;;;;;;5025621;28;20514;-66
2023/11/11 05:05:12;;;;;;;4.60;4.40;;;21.60;70.50;;;;;;5026203;28;20510;-66
2023/11/11 05:07:39;;;;;;;4.80;4.70;;;21.60;70.50;;;;;;5022549;28;20480;-66
2023/11/11 05:10:09;;;;;;;5.13;4.83;;;21.70;70.60;;;;;;5022629;28;20938;-66
2023/11/11 05:12:37;;;;;;;4.20;4.10;;;21.60;70.40;;;;;;5024358;28;20477;-66
2023/11/11 05:15:07;;;;;;;5.13;4.93;;;21.60;70.30;;;;;;5025850;28;20445;-65
2023/11/11 05:17:35;;;;;;;4.50;4.40;;;21.60;70.40;;;;;;5024075;28;20441;-66
2023/11/11 05:20:02;;;;;;;4.30;4.20;;;21.60;70.40;;;;;;5013624;28;20488;-65
2023/11/11 05:22:29;;;;;;;5.20;4.90;;;21.60;70.40;;;;;;5024559;28;20544;-66
2023/11/11 05:24:56;;;;;;;7.83;4.80;;;21.60;70.40;;;;;;5022585;28;20482;-65
2023/11/11 05:27:24;;;;;;;4.47;4.33;;;21.60;70.30;;;;;;5022319;28;20478;-65
2023/11/11 05:29:51;;;;;;;4.37;4.27;;;21.60;70.30;;;;;;5025576;28;20520;-66
2023/11/11 05:32:17;;;;;;;5.27;4.97;;;21.60;70.30;;;;;;5018248;28;20488;-66
2023/11/11 05:34:46;;;;;;;4.87;4.67;;;21.60;70.30;;;;;;5022460;28;20488;-66
2023/11/11 05:37:13;;;;;;;4.90;4.80;;;21.60;70.30;;;;;;5021997;28;20942;-65
2023/11/11 05:39:43;;;;;;;4.53;4.23;;;21.60;70.30;;;;;;5023153;28;20442;-66
2023/11/11 05:42:11;;;;;;;3.80;3.70;;;21.60;70.30;;;;;;5025674;28;20527;-66
2023/11/11 05:44:40;;;;;;;4.20;4.10;;;21.60;70.30;;;;;;5022304;28;20832;-65
2023/11/11 05:47:06;;;;;;;4.30;4.20;;;21.60;70.30;;;;;;5021813;28;20500;-66
2023/11/11 05:49:33;;;;;;;5.23;5.03;;;21.60;70.20;;;;;;5023238;28;20862;-66
2023/11/11 05:52:04;;;;;;;4.70;4.53;;;21.60;70.20;;;;;;5025332;28;20445;-65
2023/11/11 05:54:31;;;;;;;5.27;5.07;;;21.60;70.20;;;;;;5023146;28;20449;-65
2023/11/11 05:56:58;;;;;;;6.00;5.80;;;21.60;70.20;;;;;;5014957;28;20480;-66
2023/11/11 05:59:25;;;;;;;5.40;5.20;;;21.60;70.20;;;;;;5021867;28;20452;-66
2023/11/11 06:01:54;;;;;;;4.60;4.50;;;21.60;70.20;;;;;;5024614;28;20953;-66
2023/11/11 06:04:21;;;;;;;4.50;4.30;;;21.60;70.20;;;;;;5024785;28;20483;-66
2023/11/11 06:06:50;;;;;;;5.00;4.80;;;21.60;70.10;;;;;;5021235;28;21064;-65
2023/11/11 06:09:19;;;;;;;4.83;4.60;;;21.60;70.10;;;;;;5021680;28;20488;-65
2023/11/11 06:11:47;;;;;;;4.20;4.10;;;21.60;70.10;;;;;;5024343;28;20988;-66
2023/11/11 06:14:15;;;;;;;4.60;4.50;;;21.60;70.10;;;;;;5024683;28;20523;-66
2023/11/11 06:16:42;;;;;;;4.30;4.20;;;21.60;70.10;;;;;;5022046;28;20449;-65
2023/11/11 06:19:09;;;;;;;4.60;4.40;;;21.60;70.10;;;;;;5015711;28;20479;-65
2023/11/11 06:21:37;;;;;;;4.60;4.50;;;21.60;70.10;;;;;;5021241;28;20881;-66
2023/11/11 06:24:05;;;;;;;4.43;4.23;;;21.60;70.10;;;;;;5024605;28;20504;-65
2023/11/11 06:26:33;;;;;;;4.77;4.57;;;21.60;70.10;;;;;;5023655;28;21026;-66
2023/11/11 06:29:00;;;;;;;4.20;4.10;;;21.60;70.00;;;;;;5021194;28;20510;-67
2023/11/11 06:31:27;;;;;;;4.57;4.37;;;21.60;70.10;;;;;;5013260;28;20493;-65
2023/11/11 06:33:54;;;;;;;4.80;4.50;;;21.60;70.00;;;;;;5024314;28;20497;-65
2023/11/11 06:36:21;;;;;;;4.73;4.57;;;21.60;70.00;;;;;;5024629;28;20470;-65
2023/11/11 06:38:48;;;;;;;4.53;4.37;;;21.60;70.00;;;;;;5021010;28;20470;-66
2023/11/11 06:41:14;;;;;;;4.93;4.67;;;21.60;70.00;;;;;;5015404;28;20519;-66
2023/11/11 06:43:43;;;;;;;4.83;4.63;;;21.60;69.90;;;;;;5021865;28;20488;-66
2023/11/11 06:46:10;;;;;;;5.70;5.17;;;21.60;69.90;;;;;;5020993;28;20473;-66
2023/11/11 06:48:36;;;;;;;4.40;4.30;;;21.60;69.80;;;;;;5022123;28;20855;-66
2023/11/11 06:51:04;;;;;;;4.53;4.33;;;21.60;69.80;;;;;;5016952;28;20865;-65
2023/11/11 06:53:31;;;;;;;4.50;4.20;;;21.60;69.90;;;;;;5021430;28;20886;-66
2023/11/11 06:55:58;;;;;;;4.70;4.50;;;21.60;69.90;;;;;;5024320;28;20476;-66
2023/11/11 06:58:25;;;;;;;4.13;4.03;;;21.60;69.90;;;;;;5010520;28;20447;-66
2023/11/11 07:00:53;;;;;;;3.70;3.60;;;21.60;69.90;;;;;;5012497;28;20449;-66
2023/11/11 07:03:20;;;;;;;4.70;4.60;;;21.60;69.90;;;;;;5023900;28;20461;-66
2023/11/11 07:05:47;;;;;;;4.60;4.37;;;21.60;69.80;;;;;;5020942;28;20977;-67
2023/11/11 07:08:14;;;;;;;4.03;3.93;;;21.60;69.90;;;;;;5023061;28;20913;-65
2023/11/11 07:10:41;;;;;;;4.67;4.47;;;21.50;69.70;;;;;;5021682;28;20468;-65
2023/11/11 07:13:07;;;;;;;5.00;4.80;;;21.50;69.80;;;;;;5020497;28;20865;-65
2023/11/11 07:15:36;;;;;;;4.30;4.10;;;21.50;69.80;;;;;;5021444;28;20501;-65
2023/11/11 07:18:07;;;;;;;5.70;5.27;;;21.60;69.90;;;;;;5023556;28;20956;-65
2023/11/11 07:20:34;;;;;;;5.07;4.80;;;21.60;69.90;;;;;;5022337;28;20507;-65
2023/11/11 07:23:01;;;;;;;4.93;4.77;;;21.50;69.70;;;;;;5020215;28;20505;-66
2023/11/11 07:25:31;;;;;;;4.80;4.60;;;21.60;69.90;;;;;;5020549;28;20450;-65
2023/11/11 07:27:58;;;;;;;5.37;5.07;;;21.60;69.80;;;;;;5023484;28;20508;-65
2023/11/11 07:30:26;;;;;;;5.17;4.93;;;21.50;69.60;;;;;;5023590;28;20473;-66
2023/11/11 07:32:53;;;;;;;4.70;4.50;;;21.50;69.60;;;;;;5008288;28;20551;-65
2023/11/11 07:35:21;;;;;;;5.17;4.87;;;21.50;69.60;;;;;;5011155;28;20464;-66
2023/11/11 07:37:49;;;;;;;4.57;4.37;;;21.50;69.60;;;;;;5020506;28;20462;-66
2023/11/11 07:40:17;;;;;;;4.87;4.57;;;21.50;69.50;;;;;;5020221;28;20508;-65
2023/11/11 07:42:43;;;;;;;4.93;4.73;;;21.50;69.50;;;;;;5022084;28;20504;-66
2023/11/11 07:45:11;;;;;;;5.57;5.30;;;21.50;69.50;;;;;;5020643;28;20489;-66
2023/11/11 07:47:38;;;;;;;4.70;4.60;;;21.50;69.50;;;;;;5021713;28;20472;-65
2023/11/11 07:50:06;;;;;;;4.67;4.47;;;21.50;69.40;;;;;;5020119;28;20914;-66
2023/11/11 07:52:35;;;;;;;5.10;4.80;;;21.50;69.40;;;;;;5020501;28;20501;-65
2023/11/11 07:55:02;;;;;;;5.03;4.90;;;21.50;69.40;;;;;;5023278;28;20473;-65
2023/11/11 07:57:29;;;;;;;4.97;4.77;;;21.50;69.30;;;;;;5021264;28;20798;-65
2023/11/11 07:59:56;;;;;;;4.83;4.63;;;21.50;69.30;;;;;;5019812;28;20450;-66
2023/11/11 08:02:25;;;;;;;5.07;4.87;;;21.50;69.20;;;;;;5020957;28;20699;-65
2023/11/11 08:04:51;;;;;;;4.90;4.70;;;21.50;69.20;;;;;;5026947;28;20445;-65
2023/11/11 08:07:20;;;;;;;5.30;5.00;;;21.50;69.30;;;;;;5027330;28;20472;-66
2023/11/11 08:09:50;;;;;;;5.13;4.93;;;21.50;69.20;;;;;;5021692;28;20845;-65
2023/11/11 08:12:17;;;;;;;5.10;4.90;;;21.50;69.20;;;;;;5023565;28;20450;-65
2023/11/11 08:14:44;;;;;;;5.67;5.20;;;21.50;69.30;;;;;;5026622;28;20500;-67
2023/11/11 08:17:11;;;;;;;5.13;4.93;;;21.60;69.50;;;;;;5020288;28;20449;-68
2023/11/11 08:19:46;;;;;;;5.17;4.97;;;21.60;70.70;;;;;;5025700;28;20441;-67
2023/11/11 08:22:17;;;;;;;4.40;4.20;;;21.60;71.50;;;;;;5023000;28;20539;-68
2023/11/11 08:24:44;;;;;;;4.53;4.40;;;21.70;70.80;;;;;;5024467;28;20489;-66
2023/11/11 08:27:18;;;;;;;4.87;4.67;;;21.70;71.50;;;;;;5026735;28;20480;-66
2023/11/11 08:29:47;;;;;;;4.87;4.67;;;21.70;72.00;;;;;;5024334;28;20897;-66
2023/11/11 08:32:15;;;;;;;6.03;5.73;;;21.70;72.50;;;;;;5023214;28;20513;-66
2023/11/11 08:34:42;;;;;;;5.10;5.00;;;21.70;72.80;;;;;;5024893;28;20446;-67
2023/11/11 08:37:09;;;;;;;5.33;5.03;;;21.70;72.90;;;;;;5021077;28;20485;-68
2023/11/11 08:39:36;;;;;;;5.03;4.83;;;21.70;72.90;;;;;;5024094;28;20480;-67
2023/11/11 08:42:04;;;;;;;5.53;5.07;;;21.70;72.90;;;;;;5026395;28;20499;-67
2023/11/11 08:44:34;;;;;;;4.90;4.70;;;21.80;73.00;;;;;;5026039;28;20445;-67
2023/11/11 08:47:01;;;;;;;4.60;4.50;;;21.80;72.90;;;;;;5021840;28;20921;-67
2023/11/11 08:49:28;;;;;;;4.40;4.30;;;21.80;73.00;;;;;;5022814;28;21078;-69
2023/11/11 08:51:55;;;;;;;4.90;4.80;;;21.80;73.10;;;;;;5023116;28;20473;-70
2023/11/11 08:54:26;;;;;;;4.80;4.70;;;21.90;72.80;;;;;;5022085;28;20502;-69
2023/11/11 08:56:54;;;;;;;4.67;4.47;;;22.00;72.70;;;;;;5017604;28;20473;-71
2023/11/11 08:59:21;;;;;;;4.87;4.57;;;22.10;72.20;;;;;;5019350;28;21080;-69
2023/11/11 09:01:49;;;;;;;4.50;4.40;;;22.10;72.10;;;;;;5024780;28;20488;-70
2023/11/11 09:04:16;;;;;;;5.37;5.20;;;22.10;72.30;;;;;;5068937;22;20515;-69
2023/11/11 09:06:44;;;;;;;4.40;4.30;;;22.10;71.80;;;;;;5047983;28;20476;-70
2023/11/11 09:09:14;;;;;;;4.70;4.50;;;22.10;71.80;;;;;;5055063;28;20507;-69
2023/11/11 09:11:42;;;;;;;4.53;4.43;;;22.20;71.40;;;;;;5054417;28;20463;-70
2023/11/11 09:14:09;;;;;;;5.00;4.70;;;22.20;71.30;;;;;;5054703;28;20847;-70
2023/11/11 09:16:36;;;;;;;4.60;4.50;;;22.20;71.10;;;;;;5054152;28;20952;-68
2023/11/11 09:19:09;;;;;;;4.27;4.07;;;22.20;70.90;;;;;;5053978;28;20448;-69
2023/11/11 09:21:38;;;;;;;4.43;4.23;;;22.30;70.90;;;;;;5053715;28;20459;-72
2023/11/11 09:24:12;;;;;;;3.60;3.40;;;22.30;72.50;;;;;;5052000;28;20530;-71
2023/11/11 09:26:46;;;;;;;3.83;3.63;;;22.30;71.60;;;;;;5053524;28;20432;-72
2023/11/11 09:29:24;;;;;;;4.83;4.63;;;22.40;70.50;;;;;;5055098;28;20592;-69
2023/11/11 09:32:00;;;;;;;5.40;5.20;;;22.50;70.70;;;;;;5053695;28;20444;-70
2023/11/11 09:34:34;;;;;;;3.90;3.80;;;22.50;70.10;;;;;;5053879;28;20855;-70
2023/11/11 09:37:02;;;;;;;4.80;4.50;;;22.50;69.50;;;;;;5046377;28;20521;-70
2023/11/11 09:39:29;;;;;;;5.23;5.03;;;22.50;69.60;;;;;;5050470;28;20436;-70
2023/11/11 09:42:00;;;;;;;4.40;4.20;;;22.40;69.50;;;;;;5052742;28;20467;-71
2023/11/11 09:44:33;;;;;;;4.80;4.60;;;22.40;70.30;;;;;;5053059;28;20530;-69
2023/11/11 09:47:04;;;;;;;5.17;4.67;;;22.40;71.50;;;;;;5045623;28;20444;-67
2023/11/11 09:49:39;;;;;;;5.30;5.00;;;22.40;71.10;;;;;;5053285;28;20511;-69
2023/11/11 09:52:09;;;;;;;4.77;4.30;;;22.40;71.00;;;;;;5053574;28;20955;-68
2023/11/11 09:54:37;;;;;;;4.73;4.60;;;22.40;70.90;;;;;;5053108;28;20464;-69
2023/11/11 09:57:06;;;;;;;10.83;4.50;;;22.40;71.60;;;;;;5052716;28;21117;-70
2023/11/11 09:59:34;;;;;;;4.40;4.30;;;22.40;71.10;;;;;;5053960;28;20527;-69
2023/11/11 10:02:02;;;;;;;4.10;4.00;;;22.40;70.50;;;;;;5053563;28;20487;-69
2023/11/11 10:04:29;;;;;;;4.77;4.53;;;22.40;70.90;;;;;;5053494;28;20525;-69
2023/11/11 10:06:58;;;;;;;4.87;4.67;;;22.50;70.30;;;;;;5053427;28;21005;-68
2023/11/11 10:09:25;;;;;;;5.27;5.00;;;22.50;70.20;;;;;;5053176;28;21041;-67
2023/11/11 10:11:52;;;;;;;5.40;5.10;;;22.40;66.80;;;;;;5052780;28;20520;-67
2023/11/11 10:14:22;;;;;;;4.90;4.70;;;22.40;65.50;;;;;;5053040;28;20551;-69
2023/11/11 10:16:52;;;;;;;6.80;6.23;;;22.30;65.60;;;;;;5053129;28;20440;-70
2023/11/11 10:19:19;;;;;;;4.53;4.33;;;22.40;68.10;;;;;;5052676;28;20455;-71
2023/11/11 10:21:47;;;;;;;4.37;4.27;;;22.40;68.30;;;;;;5052663;28;20534;-71
2023/11/11 10:24:17;;;;;;;4.90;4.80;;;22.30;68.10;;;;;;5052512;28;20496;-71
2023/11/11 10:26:45;;;;;;;4.10;3.93;;;22.40;68.30;;;;;;5052420;28;20445;-72
2023/11/11 10:29:12;;;;;;;5.13;4.83;;;22.40;68.30;;;;;;5052423;28;20520;-71
2023/11/11 10:31:39;;;;;;;4.40;4.20;;;22.40;68.30;;;;;;5052827;28;20466;-70
2023/11/11 10:34:07;;;;;;;4.80;4.60;;;22.40;68.80;;;;;;5052850;28;20874;-71
2023/11/11 10:36:41;;;;;;;4.83;4.60;;;22.40;68.60;;;;;;5052624;28;20482;-70
2023/11/11 10:39:09;;;;;;;4.97;4.77;;;22.50;69.00;;;;;;5052546;28;20446;-72
2023/11/11 10:41:38;;;;;;;4.63;4.37;;;22.50;68.20;;;;;;5052307;28;20531;-69
2023/11/11 10:44:07;;;;;;;4.63;4.43;;;22.50;71.40;;;;;;5052421;28;20997;-69
2023/11/11 10:46:35;;;;;;;4.70;4.50;;;22.50;68.40;;;;;;5052687;28;20574;-70
2023/11/11 10:49:03;;;;;;;5.37;5.10;;;22.60;68.30;;;;;;5052635;28;20571;-70
2023/11/11 10:51:31;;;;;;;4.70;4.50;;;22.60;67.80;;;;;;5052801;28;20472;-68
2023/11/11 10:54:01;;;;;;;5.30;5.10;;;22.60;68.10;;;;;;5052592;28;20567;-68
2023/11/11 10:56:29;;;;;;;4.73;4.53;;;22.60;67.60;;;;;;5053311;28;20973;-69
2023/11/11 10:58:59;;;;;;;4.73;4.53;;;22.50;67.50;;;;;;5053017;28;20436;-68
2023/11/11 11:01:26;;;;;;;4.70;4.40;;;22.60;67.70;;;;;;5053518;28;20475;-70
2023/11/11 11:03:53;;;;;;;3.97;3.87;;;22.60;67.50;;;;;;5052803;28;20507;-71
2023/11/11 11:06:30;;;;;;;4.60;4.20;;;22.60;67.60;;;;;;5052886;28;20480;-70
2023/11/11 11:09:06;;;;;;;4.40;4.30;;;22.70;68.10;;;;;;5052716;28;20877;-72
2023/11/11 11:11:38;;;;;;;4.10;3.97;;;22.60;67.80;;;;;;5052081;28;20448;-67
2023/11/11 11:14:11;;;;;;;4.07;3.97;;;22.60;67.20;;;;;;5053433;28;20468;-68
2023/11/11 11:16:39;;;;;;;4.27;4.17;;;22.60;67.70;;;;;;5053537;28;20463;-69
2023/11/11 11:19:08;;;;;;;4.77;4.57;;;22.70;67.70;;;;;;5053278;28;20518;-68
2023/11/11 11:21:36;;;;;;;4.30;4.20;;;22.60;68.20;;;;;;5053250;28;20456;-67
2023/11/11 11:24:09;;;;;;;3.58;3.47;;;22.70;68.50;;;;;;5052831;28;20472;-68
2023/11/11 11:26:36;;;;;;;4.77;4.47;;;22.60;68.60;;;;;;5053372;28;20794;-68
2023/11/11 11:29:16;;;;;;;4.63;4.33;;;22.70;68.60;;;;;;5053142;28;20476;-71
2023/11/11 11:32:03;;;;;;;4.57;4.47;;;22.70;69.70;;;;;;5054322;28;20862;-69
2023/11/11 11:34:30;;;;;;;4.70;4.30;;;22.70;69.20;;;;;;5053920;28;20464;-69
2023/11/11 11:36:58;;;;;;;4.50;4.30;;;22.70;70.60;;;;;;5052282;28;20479;-68
2023/11/11 11:39:29;;;;;;;4.47;4.27;;;22.70;72.30;;;;;;5052865;28;20468;-69
2023/11/11 11:42:05;;;;;;;5.03;4.63;;;22.70;72.50;;;;;;5051662;28;20496;-68
2023/11/11 11:44:34;;;;;;;4.53;4.13;;;22.70;72.50;;;;;;5051807;28;20460;-71
2023/11/11 11:47:00;;;;;;;4.97;4.67;;;22.70;71.60;;;;;;5053131;28;20479;-72
2023/11/11 11:49:28;;;;;;;4.93;4.73;;;22.70;72.40;;;;;;5052341;28;20515;-71
2023/11/11 11:51:56;;;;;;;5.77;5.57;;;22.70;72.80;;;;;;5051231;28;20480;-70
2023/11/11 11:54:24;;;;;;;4.50;4.40;;;22.70;72.90;;;;;;5051215;28;20472;-69
2023/11/11 11:56:51;;;;;;;4.70;4.50;;;22.70;72.80;;;;;;5051613;28;20543;-69
2023/11/11 11:59:18;;;;;;;4.97;4.60;;;22.70;72.60;;;;;;5051805;28;20522;-68
2023/11/11 12:01:47;;;;;;;4.50;4.30;;;22.70;72.10;;;;;;5051499;28;20523;-69
2023/11/11 12:04:14;;;;;;;4.70;4.40;;;22.70;71.90;;;;;;5052001;28;20474;-69
2023/11/11 12:06:42;;;;;;;4.90;4.50;;;22.70;71.70;;;;;;5052955;28;20452;-68
2023/11/11 12:09:09;;;;;;;4.13;4.03;;;22.80;71.60;;;;;;5053116;28;20498;-68
2023/11/11 12:11:37;;;;;;;4.60;4.40;;;22.80;71.50;;;;;;5053440;28;20810;-69
2023/11/11 12:14:05;;;;;;;3.80;3.70;;;22.80;71.40;;;;;;5052873;28;20468;-68
2023/11/11 12:16:39;;;;;;;4.30;4.20;;;22.80;71.20;;;;;;5053263;28;20488;-69
2023/11/11 12:19:17;;;;;;;4.53;4.43;;;22.80;70.90;;;;;;5053032;28;20943;-69
2023/11/11 12:21:47;;;;;;;4.30;4.15;;;22.80;70.90;;;;;;5053113;28;20518;-68
2023/11/11 12:24:15;;;;;;;4.97;4.77;;;22.80;70.80;;;;;;5053047;28;20221;-72
2023/11/11 12:26:43;;;;;;;4.67;4.40;;;22.80;70.00;;;;;;5051819;28;20436;-70
2023/11/11 12:29:10;;;;;;;4.50;4.30;;;22.90;70.30;;;;;;5051947;28;20472;-72
2023/11/11 12:31:45;;;;;;;4.23;4.13;;;22.90;70.10;;;;;;5052912;28;21291;-73
2023/11/11 12:34:14;;;;;;;3.97;3.83;;;22.90;70.10;;;;;;5052139;28;20558;-72
2023/11/11 12:36:42;;;;;;;4.00;3.90;;;22.90;70.60;;;;;;5052243;28;20444;-73
2023/11/11 12:39:09;;;;;;;4.70;4.60;;;22.90;70.20;;;;;;5052485;28;20475;-72
2023/11/11 12:41:37;;;;;;;4.90;4.50;;;22.90;70.30;;;;;;5052303;28;20526;-68
2023/11/11 12:44:07;;;;;;;4.60;4.30;;;22.90;70.00;;;;;;5052016;28;20470;-71
2023/11/11 12:46:43;;;;;;;4.53;4.43;;;22.90;70.30;;;;;;5052279;28;20499;-70
2023/11/11 12:49:12;;;;;;;4.30;4.20;;;22.90;69.80;;;;;;5054787;28;20946;-71